createdAt,value
2018-07-09T00:00:59.903Z,100.00
2018-07-09T00:03:28.748Z,100.00
2018-07-09T00:05:57.833Z,99.32
2018-07-09T00:08:26.525Z,95.89
2018-07-09T00:11:00.914Z,96.40
2018-07-09T00:13:30.377Z,95.15
2018-07-09T00:15:59.273Z,95.25
2018-07-09T00:18:28.247Z,94.99
2018-07-09T00:20:57.000Z,94.32
2018-07-09T00:23:25.668Z,94.83
2018-07-09T00:25:54.957Z,95.51
2018-07-09T00:28:24.095Z,96.27
2018-07-09T00:30:52.942Z,96.32
2018-07-09T00:33:22.456Z,95.86
2018-07-09T00:35:51.234Z,98.96
2018-07-09T00:38:20.318Z,99.41
2018-07-09T00:40:48.968Z,98.92
2018-07-09T00:43:17.781Z,100.00
2018-07-09T00:45:46.506Z,98.51
2018-07-09T00:48:15.222Z,98.19
2018-07-09T00:50:43.921Z,98.23
2018-07-09T00:53:12.567Z,99.23
2018-07-09T00:55:41.334Z,100.00
2018-07-09T00:58:10.323Z,100.00
2018-07-09T01:00:39.238Z,100.00
2018-07-09T01:03:07.869Z,100.00
2018-07-09T01:05:36.954Z,100.00
2018-07-09T01:08:05.855Z,100.00
2018-07-09T01:10:39.654Z,100.00
2018-07-09T01:13:08.489Z,100.00
2018-07-09T01:15:37.441Z,100.00
2018-07-09T01:18:06.433Z,100.00
2018-07-09T01:20:35.385Z,100.00
2018-07-09T01:23:04.131Z,100.00
2018-07-09T01:25:33.248Z,100.00
2018-07-09T01:28:01.985Z,100.00
2018-07-09T01:30:35.738Z,100.00
2018-07-09T01:33:04.530Z,100.00
2018-07-09T01:35:34.343Z,100.00
2018-07-09T01:38:03.197Z,100.00
2018-07-09T01:40:31.777Z,100.00
2018-07-09T01:43:00.707Z,100.00
2018-07-09T01:45:29.431Z,100.00
2018-07-09T01:47:58.273Z,100.00
2018-07-09T01:50:27.031Z,100.00
2018-07-09T01:52:55.749Z,100.00
2018-07-09T01:55:24.546Z,100.00
2018-07-09T01:57:53.394Z,100.00
2018-07-09T02:00:22.245Z,100.00
2018-07-09T02:02:51.022Z,100.00
2018-07-09T02:05:19.748Z,100.00
2018-07-09T02:07:48.619Z,100.00
2018-07-09T02:10:17.275Z,100.00
2018-07-09T02:12:46.172Z,100.00
2018-07-09T02:15:14.951Z,100.00
2018-07-09T02:17:43.523Z,100.00
2018-07-09T02:20:12.230Z,100.00
2018-07-09T02:22:41.678Z,100.00
2018-07-09T02:25:10.427Z,100.00
2018-07-09T02:27:39.185Z,100.00
2018-07-09T02:30:07.852Z,100.00
2018-07-09T02:32:36.565Z,100.00
2018-07-09T02:35:05.342Z,100.00
2018-07-09T02:37:34.142Z,100.00
2018-07-09T02:40:02.807Z,100.00
2018-07-09T02:42:31.589Z,100.00
2018-07-09T02:45:00.445Z,100.00
2018-07-09T02:47:29.111Z,100.00
2018-07-09T02:49:57.718Z,100.00
2018-07-09T02:52:26.341Z,100.00
2018-07-09T02:54:54.999Z,100.00
2018-07-09T02:57:23.565Z,100.00
2018-07-09T02:59:52.280Z,100.00
2018-07-09T03:02:20.942Z,100.00
2018-07-09T03:04:49.822Z,100.00
2018-07-09T03:07:18.377Z,100.00
2018-07-09T03:09:46.986Z,100.00
2018-07-09T03:12:15.702Z,100.00
2018-07-09T03:14:44.482Z,100.00
2018-07-09T03:17:13.146Z,100.00
2018-07-09T03:19:41.891Z,100.00
2018-07-09T03:22:10.625Z,100.00
2018-07-09T03:24:39.306Z,100.00
2018-07-09T03:27:07.898Z,100.00
2018-07-09T03:29:36.581Z,100.00
2018-07-09T03:32:05.215Z,100.00
2018-07-09T03:34:34.010Z,100.00
2018-07-09T03:37:02.626Z,100.00
2018-07-09T03:39:31.466Z,100.00
2018-07-09T03:42:00.153Z,100.00
2018-07-09T03:44:28.817Z,100.00
2018-07-09T03:46:57.439Z,100.00
2018-07-09T03:49:26.045Z,100.00
2018-07-09T03:51:54.670Z,100.00
2018-07-09T03:54:23.306Z,100.00
2018-07-09T03:56:52.013Z,100.00
2018-07-09T03:59:20.773Z,100.00
2018-07-09T04:01:49.486Z,100.00
2018-07-09T04:04:18.114Z,100.00
2018-07-09T04:06:46.726Z,99.43
2018-07-09T04:09:15.642Z,95.52
2018-07-09T04:11:44.295Z,92.90
2018-07-09T04:14:12.847Z,91.24
2018-07-09T04:16:41.490Z,91.14
2018-07-09T04:19:10.118Z,89.50
2018-07-09T04:21:38.704Z,83.21
2018-07-09T04:24:07.302Z,81.28
2018-07-09T04:26:35.898Z,76.44
2018-07-09T04:29:04.490Z,75.31
2018-07-09T04:31:33.102Z,74.44
2018-07-09T04:34:01.811Z,74.96
2018-07-09T04:36:30.438Z,74.11
2018-07-09T04:38:59.049Z,72.65
2018-07-09T04:41:27.625Z,70.23
2018-07-09T04:43:56.235Z,69.49
2018-07-09T04:46:24.859Z,70.28
2018-07-09T04:48:53.721Z,70.24
2018-07-09T04:51:22.382Z,68.72
2018-07-09T04:53:50.959Z,66.32
2018-07-09T04:56:19.574Z,63.93
2018-07-09T04:58:48.242Z,61.93
2018-07-09T05:01:17.026Z,58.54
2018-07-09T05:03:45.879Z,57.44
2018-07-09T05:06:14.710Z,56.06
2018-07-09T05:08:43.470Z,54.54
2018-07-09T05:11:12.105Z,53.00
2018-07-09T05:13:40.977Z,51.17
2018-07-09T05:16:09.833Z,49.89
2018-07-09T05:18:38.504Z,50.08
2018-07-09T05:21:07.307Z,50.57
2018-07-09T05:23:35.935Z,51.56
2018-07-09T05:26:04.712Z,51.06
2018-07-09T05:28:34.157Z,50.99
2018-07-09T05:31:02.879Z,47.41
2018-07-09T05:33:32.520Z,48.04
2018-07-09T05:36:01.975Z,46.86
2018-07-09T05:38:30.782Z,46.04
2018-07-09T05:40:59.545Z,46.39
2018-07-09T05:43:34.749Z,42.63
2018-07-09T05:46:03.471Z,41.37
2018-07-09T05:48:32.169Z,41.21
2018-07-09T05:51:00.874Z,40.75
2018-07-09T05:53:29.746Z,39.14
2018-07-09T05:55:58.469Z,39.43
2018-07-09T05:58:27.143Z,38.28
2018-07-09T06:00:55.917Z,39.68
2018-07-09T06:03:24.617Z,36.00
2018-07-09T06:05:53.273Z,37.79
2018-07-09T06:08:21.984Z,37.81
2018-07-09T06:10:50.725Z,35.99
2018-07-09T06:13:19.489Z,33.61
2018-07-09T06:15:48.135Z,34.20
2018-07-09T06:18:16.806Z,37.01
2018-07-09T06:20:45.565Z,36.59
2018-07-09T06:23:14.216Z,34.93
2018-07-09T06:25:42.870Z,34.29
2018-07-09T06:28:11.506Z,30.45
2018-07-09T06:30:40.158Z,33.02
2018-07-09T06:33:08.873Z,34.75
2018-07-09T06:35:37.693Z,32.13
2018-07-09T06:38:06.535Z,32.29
2018-07-09T06:40:35.112Z,29.97
2018-07-09T06:43:03.919Z,30.71
2018-07-09T06:45:32.548Z,29.50
2018-07-09T06:48:01.193Z,30.47
2018-07-09T06:50:29.908Z,30.05
2018-07-09T06:52:58.582Z,30.12
2018-07-09T06:55:27.196Z,30.37
2018-07-09T06:57:55.984Z,29.03
2018-07-09T07:00:24.592Z,27.12
2018-07-09T07:02:54.266Z,24.66
2018-07-09T07:05:23.093Z,24.37
2018-07-09T07:07:51.889Z,26.28
2018-07-09T07:10:20.900Z,24.32
2018-07-09T07:12:49.688Z,25.75
2018-07-09T07:15:18.477Z,25.86
2018-07-09T07:17:47.113Z,25.70
2018-07-09T07:20:15.756Z,24.79
2018-07-09T07:22:45.422Z,25.37
2018-07-09T07:25:14.814Z,23.81
2018-07-09T07:27:43.443Z,22.20
2018-07-09T07:30:12.093Z,22.72
2018-07-09T07:32:40.784Z,22.07
2018-07-09T07:35:09.401Z,22.22
2018-07-09T07:37:38.052Z,23.84
2018-07-09T07:40:06.819Z,22.96
2018-07-09T07:42:35.484Z,24.56
2018-07-09T07:45:04.078Z,24.81
2018-07-09T07:47:32.645Z,22.85
2018-07-09T07:50:01.419Z,22.69
2018-07-09T07:52:30.014Z,20.10
2018-07-09T07:54:58.679Z,19.95
2018-07-09T07:57:27.373Z,19.94
2018-07-09T07:59:56.068Z,19.02
2018-07-09T08:02:24.800Z,20.07
2018-07-09T08:04:53.594Z,21.37
2018-07-09T08:07:22.406Z,22.47
2018-07-09T08:09:51.091Z,21.71
2018-07-09T08:14:48.733Z,22.41
2018-07-09T08:17:18.072Z,21.44
2018-07-09T08:19:46.786Z,20.40
2018-07-09T08:22:15.610Z,21.00
2018-07-09T08:24:44.323Z,21.26
2018-07-09T08:27:12.971Z,21.50
2018-07-09T08:30:44.611Z,23.14
2018-07-09T08:33:13.241Z,25.01
2018-07-09T08:35:41.859Z,23.60
2018-07-09T08:38:10.539Z,26.29
2018-07-09T08:40:39.298Z,26.48
2018-07-09T08:43:08.026Z,25.42
2018-07-09T08:45:36.675Z,28.95
2018-07-09T08:48:05.438Z,28.32
2018-07-09T08:50:34.519Z,27.15
2018-07-09T08:53:03.262Z,25.82
2018-07-09T08:55:32.013Z,23.75
2018-07-09T08:58:00.688Z,24.33
2018-07-09T09:00:30.106Z,24.52
2018-07-09T09:02:58.893Z,25.78
2018-07-09T09:05:27.578Z,25.44
2018-07-09T09:07:56.343Z,24.93
2018-07-09T09:10:25.048Z,23.36
2018-07-09T09:12:53.714Z,24.79
2018-07-09T09:15:22.441Z,26.41
2018-07-09T09:17:51.822Z,24.88
2018-07-09T09:20:22.121Z,25.82
2018-07-09T09:22:50.830Z,23.90
2018-07-09T09:25:19.569Z,22.18
2018-07-09T09:27:48.305Z,24.41
2018-07-09T09:30:16.972Z,25.58
2018-07-09T09:32:47.747Z,26.24
2018-07-09T09:35:16.352Z,27.82
2018-07-09T09:37:46.875Z,26.64
2018-07-09T09:40:15.542Z,27.07
2018-07-09T09:42:44.244Z,25.67
2018-07-09T09:45:12.811Z,23.98
2018-07-09T09:47:41.378Z,23.34
2018-07-09T09:50:09.910Z,22.26
2018-07-09T09:52:38.490Z,24.64
2018-07-09T09:55:07.076Z,23.17
2018-07-09T09:57:35.638Z,24.04
2018-07-09T10:00:04.836Z,24.97
2018-07-09T10:02:33.486Z,25.50
2018-07-09T10:05:02.030Z,24.83
2018-07-09T10:07:30.597Z,26.37
2018-07-09T10:09:59.285Z,24.20
2018-07-09T10:12:27.840Z,25.94
2018-07-09T10:14:56.409Z,26.04
2018-07-09T10:17:25.070Z,22.78
2018-07-09T10:19:53.624Z,26.48
2018-07-09T10:22:22.164Z,23.68
2018-07-09T10:24:50.708Z,22.80
2018-07-09T10:27:19.235Z,23.89
2018-07-09T10:29:47.804Z,23.28
2018-07-09T10:32:16.329Z,22.54
2018-07-09T10:34:44.920Z,24.13
2018-07-09T10:37:13.494Z,22.03
2018-07-09T10:39:42.122Z,24.17
2018-07-09T10:42:10.694Z,24.33
2018-07-09T10:44:39.240Z,28.22
2018-07-09T10:47:07.802Z,27.15
2018-07-09T10:49:36.351Z,25.48
2018-07-09T10:52:04.927Z,23.36
2018-07-09T10:54:33.583Z,25.54
2018-07-09T10:57:02.277Z,26.40
2018-07-09T10:59:30.799Z,30.80
2018-07-09T11:01:59.356Z,33.84
2018-07-09T11:04:27.914Z,30.57
2018-07-09T11:06:56.490Z,27.87
2018-07-09T11:09:25.013Z,25.62
2018-07-09T11:11:53.578Z,23.80
2018-07-09T11:14:22.094Z,24.32
2018-07-09T11:16:50.739Z,22.40
2018-07-09T11:19:19.274Z,23.13
2018-07-09T11:21:47.843Z,25.31
2018-07-09T11:24:16.521Z,25.22
2018-07-09T11:26:45.713Z,26.07
2018-07-09T11:29:14.284Z,26.54
2018-07-09T11:31:43.293Z,28.38
2018-07-09T11:34:11.815Z,28.50
2018-07-09T11:36:40.381Z,28.91
2018-07-09T11:39:09.124Z,27.94
2018-07-09T11:41:37.701Z,28.06
2018-07-09T11:44:06.225Z,29.81
2018-07-09T11:46:34.761Z,29.56
2018-07-09T11:49:03.289Z,29.83
2018-07-09T11:51:31.850Z,29.60
2018-07-09T11:54:01.266Z,27.90
2018-07-09T11:56:29.795Z,26.76
2018-07-09T11:58:58.441Z,27.32
2018-07-09T12:01:27.001Z,28.07
2018-07-09T12:03:55.544Z,28.45
2018-07-09T12:06:24.067Z,29.15
2018-07-09T12:08:52.652Z,30.84
2018-07-09T12:11:21.248Z,32.20
2018-07-09T12:13:49.759Z,32.27
2018-07-09T12:16:18.253Z,31.33
2018-07-09T12:18:46.773Z,32.58
2018-07-09T12:21:15.321Z,28.95
2018-07-09T12:23:43.882Z,31.01
2018-07-09T12:26:12.422Z,29.17
2018-07-09T12:28:41.340Z,31.24
2018-07-09T12:31:09.887Z,30.42
2018-07-09T12:33:38.468Z,34.18
2018-07-09T12:36:07.352Z,32.28
2018-07-09T12:38:35.878Z,32.72
2018-07-09T12:41:04.643Z,33.14
2018-07-09T12:43:33.178Z,33.32
2018-07-09T12:46:01.777Z,33.88
2018-07-09T12:48:30.475Z,35.16
2018-07-09T12:50:59.044Z,33.88
2018-07-09T12:53:27.592Z,35.79
2018-07-09T12:55:56.227Z,35.12
2018-07-09T12:58:24.934Z,35.94
2018-07-09T13:00:53.743Z,34.89
2018-07-09T13:03:22.722Z,35.57
2018-07-09T13:05:51.320Z,35.17
2018-07-09T13:08:19.835Z,35.20
2018-07-09T13:10:48.400Z,36.52
2018-07-09T13:13:16.928Z,35.58
2018-07-09T13:15:45.488Z,35.77
2018-07-09T13:18:14.054Z,36.87
2018-07-09T13:20:42.678Z,37.70
2018-07-09T13:23:11.261Z,39.35
2018-07-09T13:25:39.810Z,38.71
2018-07-09T13:28:08.379Z,38.20
2018-07-09T13:30:36.959Z,37.42
2018-07-09T13:33:05.583Z,39.22
2018-07-09T13:35:34.182Z,39.18
2018-07-09T13:38:03.086Z,38.69
2018-07-09T13:40:32.566Z,36.85
2018-07-09T13:43:02.247Z,37.70
2018-07-09T13:45:31.171Z,40.49
2018-07-09T13:48:00.733Z,38.21
2018-07-09T13:50:29.493Z,37.03
2018-07-09T13:52:59.289Z,37.61
2018-07-09T13:55:28.174Z,38.48
2018-07-09T13:57:56.957Z,37.30
2018-07-09T14:00:25.764Z,38.68
2018-07-09T14:02:55.735Z,38.74
2018-07-09T14:05:24.596Z,38.17
2018-07-09T14:07:53.489Z,37.82
2018-07-09T14:10:22.345Z,36.79
2018-07-09T14:12:50.996Z,39.67
2018-07-09T14:15:19.700Z,39.62
2018-07-09T14:17:49.330Z,40.21
2018-07-09T14:20:33.462Z,35.83
2018-07-09T14:23:02.861Z,37.11
2018-07-09T14:25:31.445Z,37.66
2018-07-09T14:28:00.255Z,38.21
2018-07-09T14:30:29.010Z,40.85
2018-07-09T14:32:57.664Z,37.49
2018-07-09T14:35:26.578Z,38.48
2018-07-09T14:37:55.134Z,39.76
2018-07-09T14:40:24.181Z,40.58
2018-07-09T14:42:53.638Z,35.72
2018-07-09T14:45:22.368Z,36.55
2018-07-09T14:47:50.905Z,35.18
2018-07-09T14:50:19.580Z,35.76
2018-07-09T14:52:48.241Z,34.86
2018-07-09T14:55:16.965Z,35.06
2018-07-09T14:57:45.565Z,34.34
2018-07-09T15:00:14.322Z,33.56
2018-07-09T15:02:44.183Z,31.67
2018-07-09T15:05:12.823Z,33.76
2018-07-09T15:07:41.468Z,33.35
2018-07-09T15:10:13.887Z,32.60
2018-07-09T15:12:44.829Z,32.89
2018-07-09T15:15:13.458Z,32.88
2018-07-09T15:17:42.100Z,36.10
2018-07-09T15:20:10.822Z,37.75
2018-07-09T15:22:39.432Z,40.31
2018-07-09T15:25:08.090Z,41.47
2018-07-09T15:27:36.898Z,40.85
2018-07-09T15:30:05.611Z,42.05
2018-07-09T15:32:34.225Z,43.09
2018-07-09T15:35:02.917Z,47.66
2018-07-09T15:37:31.662Z,49.39
2018-07-09T15:40:00.325Z,48.42
2018-07-09T15:42:28.949Z,47.25
2018-07-09T15:44:57.641Z,44.12
2018-07-09T15:47:26.476Z,47.03
2018-07-09T15:49:55.220Z,45.73
2018-07-09T15:52:23.871Z,46.10
2018-07-09T15:54:52.483Z,48.18
2018-07-09T15:57:21.092Z,46.13
2018-07-09T15:59:49.726Z,49.77
2018-07-09T16:02:18.291Z,48.57
2018-07-09T16:04:46.932Z,45.47
2018-07-09T16:07:15.565Z,46.52
2018-07-09T16:09:44.300Z,42.98
2018-07-09T16:12:12.999Z,39.50
2018-07-09T16:14:41.689Z,39.99
2018-07-09T16:17:10.463Z,41.85
2018-07-09T16:19:39.276Z,42.26
2018-07-09T16:22:08.019Z,40.79
2018-07-09T16:24:36.684Z,40.56
2018-07-09T16:27:05.262Z,40.49
2018-07-09T16:29:33.807Z,41.45
2018-07-09T16:32:02.364Z,42.90
2018-07-09T16:34:30.885Z,41.41
2018-07-09T16:36:59.504Z,38.15
2018-07-09T16:39:28.082Z,40.58
2018-07-09T16:41:56.604Z,39.48
2018-07-09T16:44:25.183Z,39.46
2018-07-09T16:46:53.762Z,39.53
2018-07-09T16:49:22.351Z,38.95
2018-07-09T16:51:50.899Z,37.58
2018-07-09T16:54:19.473Z,36.99
2018-07-09T16:56:48.020Z,37.62
2018-07-09T16:59:16.613Z,36.12
2018-07-09T17:01:45.115Z,36.41
2018-07-09T17:04:13.662Z,36.61
2018-07-09T17:06:42.189Z,36.52
2018-07-09T17:09:10.902Z,36.76
2018-07-09T17:11:39.720Z,35.87
2018-07-09T17:14:08.362Z,35.94
2018-07-09T17:16:36.949Z,36.49
2018-07-09T17:19:05.536Z,37.55
2018-07-09T17:21:34.066Z,37.70
2018-07-09T17:24:02.655Z,38.43
2018-07-09T17:26:31.430Z,38.53
2018-07-09T17:28:59.789Z,38.80
2018-07-09T17:31:28.398Z,39.13
2018-07-09T17:33:56.951Z,39.53
2018-07-09T17:36:25.520Z,39.81
2018-07-09T17:38:54.823Z,40.06
2018-07-09T17:41:23.412Z,39.90
2018-07-09T17:43:51.975Z,39.68
2018-07-09T17:46:20.522Z,40.09
2018-07-09T17:48:49.028Z,39.52
2018-07-09T17:51:17.593Z,40.02
2018-07-09T17:53:46.104Z,39.51
2018-07-09T17:56:14.653Z,40.19
2018-07-09T17:58:43.188Z,39.84
2018-07-09T18:01:11.756Z,40.64
2018-07-09T18:03:40.286Z,41.63
2018-07-09T18:06:08.817Z,41.60
2018-07-09T18:08:37.341Z,42.51
2018-07-09T18:11:05.922Z,42.66
2018-07-09T18:13:34.514Z,42.96
2018-07-09T18:16:03.119Z,43.11
2018-07-09T18:18:31.661Z,43.62
2018-07-09T18:21:00.233Z,42.74
2018-07-09T18:23:28.786Z,43.80
2018-07-09T18:25:57.356Z,44.43
2018-07-09T18:28:25.939Z,44.31
2018-07-09T18:30:54.485Z,45.09
2018-07-09T18:33:23.064Z,45.55
2018-07-09T18:35:51.570Z,46.04
2018-07-09T18:38:20.132Z,45.94
2018-07-09T18:40:48.666Z,46.74
2018-07-09T18:43:17.247Z,45.94
2018-07-09T18:45:45.837Z,46.42
2018-07-09T18:48:14.475Z,47.43
2018-07-09T18:50:43.029Z,47.24
2018-07-09T18:53:11.590Z,48.19
2018-07-09T18:55:40.158Z,47.19
2018-07-09T18:58:08.901Z,49.75
2018-07-09T19:00:37.466Z,49.92
2018-07-09T19:03:06.221Z,49.98
2018-07-09T19:05:48.832Z,50.21
2018-07-09T19:08:17.409Z,50.54
2018-07-09T19:10:45.949Z,51.37
2018-07-09T19:13:14.512Z,52.15
2018-07-09T19:15:43.062Z,52.12
2018-07-09T19:18:25.367Z,52.63
2018-07-09T19:21:46.794Z,54.33
2018-07-09T19:24:14.215Z,54.48
2018-07-09T19:26:41.845Z,53.92
2018-07-09T19:29:09.178Z,55.08
2018-07-09T19:31:36.521Z,53.95
2018-07-09T19:34:03.832Z,54.61
2018-07-09T19:36:31.184Z,55.64
2018-07-09T19:38:58.467Z,56.23
2018-07-09T19:41:25.796Z,56.99
2018-07-09T19:43:53.093Z,56.45
2018-07-09T19:46:20.418Z,56.13
2018-07-09T19:48:47.777Z,56.47
2018-07-09T19:51:15.090Z,54.92
2018-07-09T19:53:42.430Z,54.76
2018-07-09T19:56:09.712Z,53.96
2018-07-09T19:58:37.020Z,54.23
2018-07-09T20:01:04.333Z,54.48
2018-07-09T20:03:31.645Z,54.49
2018-07-09T20:05:59.086Z,53.13
2018-07-09T20:08:31.626Z,53.76
2018-07-09T20:11:04.228Z,54.12
2018-07-09T20:14:02.046Z,54.23
2018-07-09T20:16:34.565Z,54.62
2018-07-09T20:19:01.894Z,55.17
2018-07-09T20:21:30.110Z,55.89
2018-07-09T20:23:57.618Z,54.44
2018-07-09T20:26:25.001Z,55.40
2018-07-09T20:28:52.313Z,54.51
2018-07-09T20:31:20.201Z,55.39
2018-07-09T20:33:47.625Z,53.59
2018-07-09T20:36:15.998Z,53.94
2018-07-09T20:38:43.506Z,53.22
2018-07-09T20:41:11.117Z,53.86
2018-07-09T20:43:38.625Z,52.92
2018-07-09T20:46:06.893Z,54.65
2018-07-09T20:48:47.425Z,53.44
2018-07-09T20:51:14.948Z,53.41
2018-07-09T20:53:42.309Z,53.88
2018-07-09T20:56:09.597Z,53.82
2018-07-09T20:58:37.013Z,53.73
2018-07-09T21:01:04.441Z,53.71
2018-07-09T21:03:31.766Z,53.77
2018-07-09T21:05:59.109Z,54.21
2018-07-09T21:08:26.425Z,53.83
2018-07-09T21:10:53.702Z,54.51
2018-07-09T21:13:21.118Z,54.67
2018-07-09T21:15:48.554Z,53.67
2018-07-09T21:18:15.737Z,53.65
2018-07-09T21:20:43.053Z,53.97
2018-07-09T21:23:10.377Z,54.37
2018-07-09T21:25:37.697Z,53.65
2018-07-09T21:28:05.018Z,53.14
2018-07-09T21:30:32.307Z,51.25
2018-07-09T21:32:59.750Z,51.46
2018-07-09T21:35:27.316Z,52.04
2018-07-09T21:37:54.802Z,52.55
2018-07-09T21:40:22.131Z,53.00
2018-07-09T21:42:49.684Z,52.27
2018-07-09T21:45:17.098Z,53.14
2018-07-09T21:47:44.446Z,53.97
2018-07-09T21:50:11.855Z,53.49
2018-07-09T21:52:39.255Z,52.72
2018-07-09T21:55:06.643Z,54.01
2018-07-09T21:57:34.017Z,53.91
2018-07-09T22:00:01.436Z,54.34
2018-07-09T22:02:28.843Z,53.25
2018-07-09T22:04:56.917Z,54.32
2018-07-09T22:07:24.414Z,53.59
2018-07-09T22:09:51.778Z,54.25
2018-07-09T22:12:19.266Z,52.57
2018-07-09T22:14:46.668Z,52.93
2018-07-09T22:17:14.013Z,52.73
2018-07-09T22:19:41.478Z,52.13
2018-07-09T22:22:08.911Z,51.35
2018-07-09T22:24:36.333Z,50.80
2018-07-09T22:27:03.867Z,49.82
2018-07-09T22:29:31.256Z,49.68
2018-07-09T22:31:59.931Z,49.61
2018-07-09T22:34:28.578Z,48.88
2018-07-09T22:36:57.411Z,48.54
2018-07-09T22:39:26.115Z,48.17
2018-07-09T22:41:54.808Z,47.95
2018-07-09T22:44:23.526Z,48.71
2018-07-09T22:46:52.334Z,48.00
2018-07-09T22:49:21.189Z,49.30
2018-07-09T22:51:51.126Z,48.79
2018-07-09T22:54:19.856Z,49.17
2018-07-09T22:56:48.722Z,48.56
2018-07-09T22:59:17.830Z,48.96
2018-07-09T23:01:46.834Z,47.90
2018-07-09T23:04:15.473Z,49.19
2018-07-09T23:06:45.194Z,48.77
2018-07-09T23:10:35.367Z,49.55
2018-07-09T23:13:25.006Z,50.07
2018-07-09T23:16:04.642Z,49.99
2018-07-09T23:18:44.223Z,50.92
2018-07-09T23:22:28.239Z,52.59
2018-07-09T23:24:56.491Z,53.71
2018-07-09T23:27:23.947Z,53.84
2018-07-09T23:29:51.377Z,53.01
2018-07-09T23:32:18.792Z,52.92
2018-07-09T23:34:46.277Z,53.81
2018-07-09T23:37:13.823Z,54.64
2018-07-09T23:39:41.284Z,53.96
2018-07-09T23:42:08.769Z,55.59
2018-07-09T23:44:36.080Z,55.99
2018-07-09T23:47:03.477Z,56.38
2018-07-09T23:49:31.033Z,64.73
2018-07-09T23:51:58.480Z,62.38
2018-07-09T23:54:26.448Z,63.67
2018-07-09T23:59:05.074Z,63.96
